createdAt,value
2018-07-16T00:02:26.153Z,11.37
2018-07-16T00:04:56.628Z,11.90
2018-07-16T00:07:27.029Z,9.83
2018-07-16T00:09:57.898Z,10.70
2018-07-16T00:12:28.369Z,10.67
2018-07-16T00:14:58.877Z,9.97
2018-07-16T00:17:28.912Z,10.80
2018-07-16T00:20:00.071Z,10.87
2018-07-16T00:22:30.659Z,10.80
2018-07-16T00:25:00.581Z,10.63
2018-07-16T00:27:31.074Z,11.10
2018-07-16T00:30:01.799Z,10.47
2018-07-16T00:32:32.705Z,10.60
2018-07-16T00:35:03.441Z,11.57
2018-07-16T00:37:33.964Z,10.73
2018-07-16T00:40:05.566Z,11.80
2018-07-16T00:42:36.053Z,11.70
2018-07-16T00:45:06.564Z,11.53
2018-07-16T00:47:37.513Z,11.87
2018-07-16T00:50:08.245Z,11.03
2018-07-16T00:52:38.805Z,11.40
2018-07-16T00:55:10.150Z,11.17
2018-07-16T00:57:40.643Z,11.70
2018-07-16T01:00:11.273Z,13.27
2018-07-16T01:02:41.160Z,12.50
2018-07-16T01:05:12.140Z,12.20
2018-07-16T01:07:42.024Z,12.43
2018-07-16T01:10:12.764Z,12.97
2018-07-16T01:12:42.639Z,12.57
2018-07-16T01:15:13.035Z,11.97
2018-07-16T01:17:42.941Z,11.30
2018-07-16T01:20:13.790Z,12.47
2018-07-16T01:22:44.277Z,13.10
2018-07-16T01:25:14.779Z,13.43
2018-07-16T01:27:45.285Z,13.67
2018-07-16T01:30:16.206Z,14.60
2018-07-16T01:32:46.085Z,14.57
2018-07-16T01:35:16.718Z,14.73
2018-07-16T01:37:47.653Z,14.73
2018-07-16T01:40:18.300Z,13.83
2018-07-16T01:42:48.712Z,13.47
2018-07-16T01:45:19.253Z,14.83
2018-07-16T01:47:50.192Z,15.60
2018-07-16T01:50:21.074Z,16.50
2018-07-16T01:52:51.561Z,15.60
2018-07-16T01:55:22.401Z,15.83
2018-07-16T01:57:52.957Z,15.83
2018-07-16T02:00:24.281Z,16.77
2018-07-16T02:02:55.005Z,16.43
2018-07-16T02:05:25.909Z,16.60
2018-07-16T02:07:56.681Z,15.73
2018-07-16T02:10:27.350Z,15.70
2018-07-16T02:12:58.191Z,15.53
2018-07-16T02:15:28.723Z,15.67
2018-07-16T02:17:59.690Z,15.60
2018-07-16T02:20:30.505Z,15.07
2018-07-16T02:23:01.044Z,14.67
2018-07-16T02:25:31.949Z,14.20
2018-07-16T02:28:03.217Z,14.33
2018-07-16T02:30:33.950Z,14.40
2018-07-16T02:33:04.555Z,14.37
2018-07-16T02:35:35.686Z,14.40
2018-07-16T02:38:05.754Z,14.37
2018-07-16T02:40:36.626Z,16.10
2018-07-16T02:43:07.145Z,15.33
2018-07-16T02:45:38.129Z,16.73
2018-07-16T02:48:08.646Z,15.87
2018-07-16T02:50:39.472Z,16.63
2018-07-16T02:53:09.906Z,15.27
2018-07-16T02:55:40.832Z,14.27
2018-07-16T02:58:11.446Z,14.80
2018-07-16T03:00:42.749Z,12.60
2018-07-16T03:03:13.343Z,13.03
2018-07-16T03:05:43.989Z,13.83
2018-07-16T03:08:14.899Z,12.80
2018-07-16T03:10:45.602Z,13.37
2018-07-16T03:13:16.132Z,13.70
2018-07-16T03:15:46.857Z,13.87
2018-07-16T03:18:17.357Z,14.70
2018-07-16T03:20:48.349Z,14.43
2018-07-16T03:23:18.849Z,13.30
2018-07-16T03:25:49.401Z,12.83
2018-07-16T03:28:20.072Z,13.73
2018-07-16T03:30:51.242Z,14.50
2018-07-16T03:33:21.713Z,15.33
2018-07-16T03:35:52.424Z,15.20
2018-07-16T03:38:23.321Z,15.33
2018-07-16T03:40:54.145Z,16.20
2018-07-16T03:43:24.641Z,15.43
2018-07-16T03:45:55.485Z,14.90
2018-07-16T03:48:25.992Z,14.97
2018-07-16T03:50:56.648Z,14.33
2018-07-16T03:53:27.594Z,15.10
2018-07-16T03:55:57.597Z,14.67
2018-07-16T03:58:27.971Z,14.30
2018-07-16T04:00:59.161Z,15.03
2018-07-16T04:03:29.843Z,15.13
2018-07-16T04:06:00.473Z,15.50
2018-07-16T04:08:31.108Z,16.17
2018-07-16T04:11:01.946Z,17.03
2018-07-16T04:13:32.428Z,16.37
2018-07-16T04:16:03.398Z,16.20
2018-07-16T04:18:33.833Z,15.77
2018-07-16T04:21:04.562Z,15.47
2018-07-16T04:23:35.070Z,15.03
2018-07-16T04:26:05.793Z,15.67
2018-07-16T04:28:36.645Z,14.80
2018-07-16T04:31:07.648Z,13.80
2018-07-16T04:33:38.225Z,14.53
2018-07-16T04:36:09.133Z,15.07
2018-07-16T04:38:39.633Z,14.67
2018-07-16T04:41:10.317Z,13.23
2018-07-16T04:43:41.042Z,13.63
2018-07-16T04:46:11.870Z,13.07
2018-07-16T04:48:42.377Z,12.37
2018-07-16T04:51:13.272Z,11.43
2018-07-16T04:53:44.084Z,11.20
2018-07-16T04:56:15.706Z,10.77
2018-07-16T04:58:47.309Z,9.70
2018-07-16T05:01:18.173Z,9.57
2018-07-16T05:03:48.725Z,9.57
2018-07-16T05:06:20.314Z,8.17
2018-07-16T05:08:50.943Z,8.83
2018-07-16T05:11:20.965Z,8.60
2018-07-16T05:13:51.780Z,7.90
2018-07-16T05:16:22.293Z,6.97
2018-07-16T05:18:52.785Z,7.47
2018-07-16T05:21:23.769Z,6.70
2018-07-16T05:23:54.463Z,6.53
2018-07-16T05:26:25.117Z,6.57
2018-07-16T05:28:56.153Z,6.10
2018-07-16T05:31:26.979Z,6.13
2018-07-16T05:33:57.544Z,6.07
2018-07-16T05:36:28.932Z,5.80
2018-07-16T05:38:59.433Z,6.37
2018-07-16T05:41:30.284Z,6.47
2018-07-16T05:44:00.789Z,5.37
2018-07-16T05:46:30.672Z,5.93
2018-07-16T05:49:01.568Z,5.50
2018-07-16T05:51:32.041Z,6.57
2018-07-16T05:54:02.845Z,5.90
2018-07-16T05:56:33.537Z,5.37
2018-07-16T05:59:03.400Z,5.27
2018-07-16T06:01:34.075Z,5.27
2018-07-16T06:04:04.718Z,4.90
2018-07-16T06:06:35.262Z,5.80
2018-07-16T06:09:06.545Z,4.73
2018-07-16T06:11:36.635Z,4.80
2018-07-16T06:14:07.113Z,4.43
2018-07-16T06:16:37.049Z,4.57
2018-07-16T06:19:07.077Z,4.60
2018-07-16T06:21:37.448Z,4.20
2018-07-16T06:24:08.165Z,4.30
2018-07-16T06:26:38.880Z,3.87
2018-07-16T06:29:09.381Z,4.23
2018-07-16T06:31:40.746Z,3.60
2018-07-16T06:34:11.306Z,3.70
2018-07-16T06:36:42.144Z,3.67
2018-07-16T06:39:14.569Z,3.50
2018-07-16T06:41:44.417Z,3.67
2018-07-16T06:44:17.682Z,3.33
2018-07-16T06:47:44.901Z,3.57
2018-07-16T06:50:17.775Z,3.30
2018-07-16T06:52:50.522Z,2.80
2018-07-16T06:55:22.519Z,3.20
2018-07-16T06:57:53.905Z,2.77
2018-07-16T07:00:24.953Z,2.90
2018-07-16T07:02:56.055Z,3.00
2018-07-16T07:05:27.342Z,2.90
2018-07-16T07:07:58.049Z,3.07
2018-07-16T07:10:29.009Z,2.63
2018-07-16T07:13:03.561Z,2.73
2018-07-16T07:15:34.600Z,2.60
2018-07-16T07:18:05.632Z,2.50
2018-07-16T07:20:36.378Z,2.93
2018-07-16T07:23:07.281Z,3.07
2018-07-16T07:25:37.907Z,2.40
2018-07-16T07:28:09.187Z,2.40
2018-07-16T07:30:39.793Z,2.73
2018-07-16T07:33:10.658Z,2.70
2018-07-16T07:35:41.425Z,2.60
2018-07-16T07:38:12.213Z,2.40
2018-07-16T07:40:42.695Z,2.53
2018-07-16T07:43:13.463Z,2.47
2018-07-16T07:45:43.989Z,2.70
2018-07-16T07:48:14.496Z,2.80
2018-07-16T07:50:45.449Z,4.10
2018-07-16T07:53:16.117Z,2.50
2018-07-16T07:55:46.749Z,2.50
2018-07-16T07:58:17.870Z,2.80
2018-07-16T08:00:49.217Z,2.37
2018-07-16T08:03:19.729Z,2.70
2018-07-16T08:05:55.365Z,2.60
2018-07-16T08:08:25.860Z,2.67
2018-07-16T08:10:56.332Z,2.50
2018-07-16T08:13:27.200Z,2.40
2018-07-16T08:15:57.746Z,2.40
2018-07-16T08:18:28.569Z,2.33
2018-07-16T08:20:59.555Z,2.43
2018-07-16T08:23:30.386Z,3.07
2018-07-16T08:26:00.974Z,2.60
2018-07-16T08:28:31.653Z,2.40
2018-07-16T08:31:02.222Z,2.90
2018-07-16T08:33:32.901Z,2.60
2018-07-16T08:36:03.894Z,2.70
2018-07-16T08:38:34.481Z,2.50
2018-07-16T08:41:04.976Z,2.40
2018-07-16T08:43:35.744Z,3.00
2018-07-16T08:46:06.668Z,2.60
2018-07-16T08:48:36.749Z,2.77
2018-07-16T08:51:07.673Z,2.87
2018-07-16T08:53:38.440Z,2.80
2018-07-16T08:56:08.544Z,3.00
2018-07-16T08:58:38.898Z,2.50
2018-07-16T09:01:09.080Z,2.63
2018-07-16T09:03:39.617Z,2.90
2018-07-16T09:06:10.108Z,2.60
2018-07-16T09:08:40.578Z,2.70
2018-07-16T09:11:11.103Z,2.60
2018-07-16T09:13:41.054Z,2.83
2018-07-16T09:16:11.926Z,2.90
2018-07-16T09:18:42.401Z,2.70
2018-07-16T09:21:12.885Z,2.60
2018-07-16T09:23:43.607Z,2.73
2018-07-16T09:26:14.156Z,2.70
2018-07-16T09:28:44.649Z,3.03
2018-07-16T09:31:14.464Z,3.53
2018-07-16T09:33:44.769Z,3.07
2018-07-16T09:36:15.488Z,2.70
2018-07-16T09:38:47.009Z,2.50
2018-07-16T09:41:17.696Z,2.47
2018-07-16T09:43:48.542Z,2.70
2018-07-16T09:46:18.669Z,2.60
2018-07-16T09:48:49.039Z,2.70
2018-07-16T09:51:19.522Z,3.07
2018-07-16T09:53:50.525Z,3.00
2018-07-16T09:56:21.035Z,2.70
2018-07-16T09:58:51.949Z,2.40
2018-07-16T10:01:27.642Z,2.57
2018-07-16T10:03:58.273Z,2.33
2018-07-16T10:06:29.041Z,2.50
2018-07-16T10:08:59.791Z,2.10
2018-07-16T10:11:30.298Z,2.30
2018-07-16T10:14:01.926Z,2.70
2018-07-16T10:16:32.821Z,2.30
2018-07-16T10:19:03.604Z,2.30
2018-07-16T10:21:34.570Z,2.37
2018-07-16T10:24:06.090Z,2.40
2018-07-16T10:26:36.595Z,2.60
2018-07-16T10:29:07.495Z,2.23
2018-07-16T10:31:38.026Z,2.60
2018-07-16T10:34:08.872Z,2.33
2018-07-16T10:36:39.415Z,2.30
2018-07-16T10:39:10.212Z,2.70
2018-07-16T10:41:40.871Z,2.60
2018-07-16T10:44:11.433Z,2.87
2018-07-16T10:46:42.370Z,3.07
2018-07-16T10:49:12.924Z,2.40
2018-07-16T10:51:43.421Z,2.40
2018-07-16T10:54:14.982Z,2.40
2018-07-16T10:57:00.994Z,2.40
2018-07-16T10:59:33.103Z,2.47
2018-07-16T11:02:08.931Z,2.40
2018-07-16T11:04:39.923Z,2.40
2018-07-16T11:07:11.358Z,2.27
2018-07-16T11:10:12.696Z,2.60
2018-07-16T11:13:13.158Z,2.30
2018-07-16T11:15:47.585Z,2.50
2018-07-16T11:18:22.480Z,2.50
2018-07-16T11:23:38.137Z,2.47
2018-07-16T11:26:09.116Z,2.63
2018-07-16T11:28:39.581Z,2.33
2018-07-16T11:32:29.759Z,2.50
2018-07-16T11:35:00.418Z,2.40
2018-07-16T11:37:30.916Z,2.20
2018-07-16T11:40:01.947Z,2.20
2018-07-16T11:42:32.058Z,2.20
2018-07-16T11:45:02.594Z,2.20
2018-07-16T11:47:33.429Z,2.20
2018-07-16T11:50:04.321Z,2.20
2018-07-16T11:52:34.824Z,2.10
2018-07-16T11:55:05.460Z,1.97
2018-07-16T11:57:36.177Z,2.37
2018-07-16T12:00:06.737Z,2.50
2018-07-16T12:02:37.383Z,2.10
2018-07-16T12:05:07.340Z,2.00
2018-07-16T12:07:37.741Z,2.07
2018-07-16T12:10:08.549Z,2.13
2018-07-16T12:12:38.484Z,2.20
2018-07-16T12:15:08.984Z,2.37
2018-07-16T12:17:40.053Z,2.00
2018-07-16T12:20:10.590Z,2.30
2018-07-16T12:22:41.452Z,2.10
2018-07-16T12:25:12.880Z,2.27
2018-07-16T12:27:43.499Z,2.10
2018-07-16T12:30:14.226Z,2.10
2018-07-16T12:32:45.200Z,2.10
2018-07-16T12:35:16.003Z,1.83
2018-07-16T12:37:46.859Z,3.50
2018-07-16T12:40:17.337Z,1.93
2018-07-16T12:42:49.612Z,1.80
2018-07-16T12:45:20.235Z,2.30
2018-07-16T12:47:51.618Z,2.10
2018-07-16T12:50:22.889Z,2.17
2018-07-16T12:52:54.347Z,2.30
2018-07-16T12:55:24.912Z,1.90
2018-07-16T12:57:55.487Z,2.10
2018-07-16T13:00:25.971Z,2.23
2018-07-16T13:02:56.440Z,2.17
2018-07-16T13:05:27.240Z,2.10
2018-07-16T13:07:58.197Z,2.20
2018-07-16T13:10:28.693Z,2.10
2018-07-16T13:13:00.432Z,2.13
2018-07-16T13:15:30.909Z,1.80
2018-07-16T13:18:01.796Z,1.90
2018-07-16T13:20:35.001Z,1.87
2018-07-16T13:23:06.557Z,2.10
2018-07-16T13:25:38.272Z,2.40
2018-07-16T13:28:10.399Z,7.03
2018-07-16T13:30:41.021Z,1.80
2018-07-16T13:33:12.493Z,2.00
2018-07-16T13:35:43.026Z,1.83
2018-07-16T13:38:14.127Z,1.70
2018-07-16T13:40:44.665Z,1.87
2018-07-16T13:43:15.181Z,1.70
2018-07-16T13:45:45.669Z,1.80
2018-07-16T13:48:16.817Z,1.90
2018-07-16T13:50:47.332Z,1.62
2018-07-16T13:53:18.276Z,1.98
2018-07-16T13:55:49.101Z,2.00
2018-07-16T13:58:19.031Z,1.80
2018-07-16T14:00:49.601Z,1.77
2018-07-16T14:03:20.206Z,1.92
2018-07-16T14:05:50.773Z,1.80
2018-07-16T14:08:24.392Z,1.85
2018-07-16T14:10:54.934Z,1.80
2018-07-16T14:13:25.520Z,1.80
2018-07-16T14:15:56.691Z,1.80
2018-07-16T14:18:27.342Z,2.02
2018-07-16T14:20:57.866Z,1.70
2018-07-16T14:23:28.811Z,2.12
2018-07-16T14:25:59.401Z,1.72
2018-07-16T14:28:30.074Z,1.70
2018-07-16T14:31:10.815Z,2.00
2018-07-16T14:33:41.977Z,2.00
2018-07-16T14:36:12.961Z,1.90
2018-07-16T14:38:42.848Z,2.00
2018-07-16T14:41:13.336Z,1.95
2018-07-16T14:43:44.126Z,1.87
2018-07-16T14:46:14.659Z,1.90
2018-07-16T14:48:45.482Z,2.10
2018-07-16T14:51:16.230Z,1.87
2018-07-16T14:53:47.321Z,1.87
2018-07-16T14:56:17.876Z,1.80
2018-07-16T14:58:49.336Z,1.90
2018-07-16T15:01:20.513Z,1.70
2018-07-16T15:03:53.392Z,1.70
2018-07-16T15:06:24.520Z,1.90
2018-07-16T15:08:55.186Z,1.90
2018-07-16T15:11:25.920Z,2.27
2018-07-16T15:13:56.844Z,2.05
2018-07-16T15:16:27.436Z,2.30
2018-07-16T15:18:58.568Z,2.55
2018-07-16T15:21:29.226Z,2.30
2018-07-16T15:23:59.737Z,2.53
2018-07-16T15:26:30.569Z,2.57
2018-07-16T15:29:01.102Z,2.73
2018-07-16T15:31:31.654Z,2.67
2018-07-16T15:34:02.009Z,2.30
2018-07-16T15:36:32.424Z,2.70
2018-07-16T15:39:44.122Z,2.50
2018-07-16T15:42:15.112Z,2.50
2018-07-16T15:44:45.606Z,2.20
2018-07-16T15:47:16.422Z,2.70
2018-07-16T15:49:47.558Z,2.50
2018-07-16T15:52:18.295Z,2.43
2018-07-16T15:54:48.813Z,2.40
2018-07-16T15:57:19.428Z,2.75
2018-07-16T15:59:50.328Z,2.62
2018-07-16T16:02:20.833Z,2.50
2018-07-16T16:04:51.505Z,3.10
2018-07-16T16:07:23.137Z,3.23
2018-07-16T16:09:53.806Z,2.93
2018-07-16T16:12:24.369Z,2.97
2018-07-16T16:14:55.176Z,2.57
2018-07-16T16:17:25.716Z,4.53
2018-07-16T16:19:56.670Z,4.87
2018-07-16T16:22:27.524Z,3.40
2018-07-16T16:24:58.254Z,3.33
2018-07-16T16:27:28.763Z,2.58
2018-07-16T16:29:59.734Z,3.10
2018-07-16T16:32:30.638Z,3.10
2018-07-16T16:35:01.350Z,2.75
2018-07-16T16:37:32.343Z,2.75
2018-07-16T16:40:02.922Z,2.40
2018-07-16T16:42:33.493Z,2.67
2018-07-16T16:45:03.848Z,2.90
2018-07-16T16:47:34.268Z,2.42
2018-07-16T16:50:04.853Z,2.58
2018-07-16T16:52:35.694Z,2.55
2018-07-16T16:55:06.542Z,2.42
2018-07-16T16:57:37.157Z,2.30
2018-07-16T17:00:08.087Z,2.70
2018-07-16T17:02:38.609Z,2.20
2018-07-16T17:05:10.025Z,3.10
2018-07-16T17:07:40.516Z,2.87
2018-07-16T17:10:11.036Z,2.70
2018-07-16T17:12:41.971Z,2.50
2018-07-16T17:15:12.608Z,2.30
2018-07-16T17:17:43.089Z,2.60
2018-07-16T17:20:14.335Z,2.27
2018-07-16T17:22:44.811Z,2.40
2018-07-16T17:25:30.042Z,2.40
2018-07-16T17:27:59.962Z,2.47
2018-07-16T17:30:30.348Z,2.40
2018-07-16T17:33:01.048Z,2.30
2018-07-16T17:35:31.656Z,2.30
2018-07-16T17:38:02.449Z,2.30
2018-07-16T17:40:33.148Z,4.73
2018-07-16T17:43:03.737Z,2.33
2018-07-16T17:45:34.431Z,2.47
2018-07-16T17:48:04.369Z,2.63
2018-07-16T17:50:34.765Z,2.40
2018-07-16T17:53:11.153Z,2.30
2018-07-16T17:55:43.521Z,2.33
2018-07-16T17:58:15.119Z,2.30
2018-07-16T18:00:48.895Z,2.30
2018-07-16T18:03:20.637Z,2.07
2018-07-16T18:05:54.505Z,2.40
2018-07-16T18:08:26.297Z,2.70
2018-07-16T18:10:57.294Z,2.20
2018-07-16T18:13:28.562Z,2.50
2018-07-16T18:15:59.849Z,2.63
2018-07-16T18:18:30.568Z,2.50
2018-07-16T18:21:01.458Z,3.40
2018-07-16T18:23:32.790Z,2.77
2018-07-16T18:26:03.893Z,2.40
2018-07-16T18:28:34.861Z,3.10
2018-07-16T18:31:05.413Z,2.33
2018-07-16T18:33:36.910Z,2.33
2018-07-16T18:36:07.621Z,2.33
2018-07-16T18:38:38.481Z,2.30
2018-07-16T18:41:09.599Z,2.33
2018-07-16T18:43:40.490Z,2.60
2018-07-16T18:46:11.325Z,2.60
2018-07-16T18:48:41.884Z,2.43
2018-07-16T18:51:11.808Z,3.00
2018-07-16T18:53:42.178Z,2.90
2018-07-16T18:56:12.769Z,2.87
2018-07-16T18:58:43.517Z,2.90
2018-07-16T19:01:14.380Z,3.23
2018-07-16T19:03:44.894Z,3.03
2018-07-16T19:06:15.967Z,3.20
2018-07-16T19:08:46.509Z,3.53
2018-07-16T19:11:16.989Z,3.40
2018-07-16T19:13:47.755Z,3.20
2018-07-16T19:16:18.485Z,3.13
2018-07-16T19:18:48.495Z,4.00
2018-07-16T19:21:19.140Z,3.10
2018-07-16T19:23:49.600Z,3.40
2018-07-16T19:26:20.125Z,3.30
2018-07-16T19:28:50.974Z,3.20
2018-07-16T19:31:20.884Z,3.30
2018-07-16T19:33:51.267Z,3.50
2018-07-16T19:36:22.084Z,3.37
2018-07-16T19:38:52.650Z,3.50
2018-07-16T19:41:23.402Z,3.43
2018-07-16T19:43:54.241Z,3.70
2018-07-16T19:46:24.725Z,3.60
2018-07-16T19:48:55.240Z,3.37
2018-07-16T19:51:27.613Z,3.70
2018-07-16T19:53:58.640Z,3.40
2018-07-16T19:56:29.617Z,3.27
2018-07-16T19:59:00.103Z,3.60
2018-07-16T20:01:30.910Z,3.83
2018-07-16T20:04:01.646Z,3.87
2018-07-16T20:06:31.424Z,3.70
2018-07-16T20:09:02.135Z,3.60
2018-07-16T20:11:32.820Z,3.93
2018-07-16T20:14:03.325Z,3.83
2018-07-16T20:16:41.868Z,4.43
2018-07-16T20:19:13.123Z,4.17
2018-07-16T20:21:44.174Z,4.07
2018-07-16T20:24:14.645Z,4.13
2018-07-16T20:26:45.472Z,4.40
2018-07-16T20:29:16.334Z,4.07
2018-07-16T20:31:47.349Z,4.40
2018-07-16T20:34:17.846Z,4.27
2018-07-16T20:36:48.473Z,4.53
2018-07-16T20:39:18.954Z,4.70
2018-07-16T20:41:49.805Z,4.60
2018-07-16T20:44:20.468Z,4.63
2018-07-16T20:46:52.457Z,4.87
2018-07-16T20:49:25.805Z,4.80
2018-07-16T20:51:57.744Z,4.70
2018-07-16T20:54:28.110Z,4.30
2018-07-16T20:56:58.068Z,4.60
2018-07-16T20:59:28.780Z,4.53
2018-07-16T21:01:59.401Z,4.53
2018-07-16T21:04:30.105Z,5.27
2018-07-16T21:07:01.037Z,5.20
2018-07-16T21:09:31.525Z,5.10
2018-07-16T21:12:02.029Z,4.87
2018-07-16T21:14:32.777Z,4.87
2018-07-16T21:17:03.269Z,5.23
2018-07-16T21:19:33.760Z,5.23
2018-07-16T21:22:04.528Z,4.97
2018-07-16T21:24:34.909Z,5.90
2018-07-16T21:27:05.474Z,5.47
2018-07-16T21:29:36.313Z,5.30
2018-07-16T21:32:06.782Z,5.40
2018-07-16T21:34:37.285Z,5.73
2018-07-16T21:37:07.833Z,4.97
2018-07-16T21:39:38.728Z,5.27
2018-07-16T21:42:09.322Z,5.27
2018-07-16T21:44:39.963Z,5.17
2018-07-16T21:47:11.073Z,5.30
2018-07-16T21:49:41.577Z,5.53
2018-07-16T21:52:11.844Z,5.07
2018-07-16T21:54:42.200Z,5.50
2018-07-16T21:57:13.205Z,6.00
2018-07-16T21:59:43.668Z,5.33
2018-07-16T22:02:14.377Z,6.10
2018-07-16T22:04:44.919Z,5.90
2018-07-16T22:07:15.629Z,5.60
2018-07-16T22:09:46.186Z,5.70
2018-07-16T22:12:17.069Z,5.97
2018-07-16T22:14:47.812Z,6.90
2018-07-16T22:17:18.574Z,10.00
2018-07-16T22:19:51.580Z,18.50
2018-07-16T22:22:22.589Z,12.67
2018-07-16T22:24:53.220Z,8.50
2018-07-16T22:27:24.485Z,7.10
2018-07-16T22:29:55.753Z,6.80
2018-07-16T22:32:26.821Z,7.47
2018-07-16T22:34:57.320Z,6.60
2018-07-16T22:37:27.970Z,6.93
2018-07-16T22:39:58.501Z,7.10
2018-07-16T22:42:29.107Z,7.13
2018-07-16T22:45:00.003Z,6.83
2018-07-16T22:47:30.836Z,6.60
2018-07-16T22:50:01.502Z,8.67
2018-07-16T22:52:32.329Z,16.00
2018-07-16T22:55:02.818Z,8.73
2018-07-16T22:57:33.343Z,10.83
2018-07-16T23:00:03.958Z,7.40
2018-07-16T23:02:34.748Z,9.03
2018-07-16T23:05:05.337Z,7.67
2018-07-16T23:07:35.972Z,8.13
2018-07-16T23:10:06.490Z,8.17
2018-07-16T23:12:36.984Z,10.47
2018-07-16T23:15:07.477Z,10.43
2018-07-16T23:17:38.236Z,8.30
2018-07-16T23:20:08.716Z,8.27
2018-07-16T23:22:51.354Z,7.90
2018-07-16T23:25:22.424Z,8.17
2018-07-16T23:27:53.184Z,8.83
2018-07-16T23:30:23.381Z,8.20
2018-07-16T23:32:53.773Z,8.90
2018-07-16T23:35:24.240Z,8.67
2018-07-16T23:37:54.717Z,8.80
2018-07-16T23:40:25.256Z,8.53
2018-07-16T23:42:56.291Z,9.10
2018-07-16T23:45:26.907Z,9.00
2018-07-16T23:47:57.569Z,9.60
2018-07-16T23:50:28.141Z,8.50
2018-07-16T23:52:58.796Z,8.87
2018-07-16T23:55:29.319Z,10.13
2018-07-16T23:58:00.487Z,9.40
